Terminal Aerodrome Forecast
Issued by NWS

Home | Current Version | Previous Version | Text Only | Print | Product List | Glossary On
Versions: 1 2 3 4 5 6 7 8 9 10 11 12 13 14 15 16
000
FTUS42 KTBW 280530
TAFLAL
TAF
KLAL 280530Z 2806/2906 08004KT P6SM FEW250
     FM281400 08009KT P6SM FEW030 SCT250
     FM281700 08010G16KT P6SM SCT045 SCT250
     FM282100 08012G18KT P6SM SCT060 SCT250
     FM290100 08007KT P6SM SCT250
      AMD NOT SKED TIL 281200=

USA.gov is the U.S. government's official web portal to all federal, state and local government web resources and services.